Hobart Ellerslie Road, Tasmania

11:02 PM AEST on September 23, 2014 (GMT +1000)
South Hobart | Change Station
CLOSE
Current Station
Personal Weather Station
Location: South Hobart, TASMANIA
Elevation: 351 ft
Nearby Weather Stations

Elev 351 ft 42.90 °S, 147.31 °E | Updated 8 minutes ago

Clear
Clear
49.6 °F
Feels Like 48 °F
N
4.2
Wind Variable Wind from NE

Today
High -- | Low -- °F
--% Chance of Precip.
Yesterday
High -- | Low -- °F
Precip. -- in
5:59 AM 6:08 PM
Waning Crescent, 0% visible
Pressure 30.09 in
Visibility -9999.0 miles
Clouds
Windchill 48 °F
Dew Point 41 °F
Humidity 73%
Rainfall 0.00 in
Snow Depth Not available.
UV Not available.
Pollen Not available.
Air Quality Not available.
Flu Activity Not available.
METAR YMHB 231230Z 31010KT CAVOK 13/07 Q1019

More Conditions Fewer Conditions

Pressure 30.09 in
Visibility -9999.0 miles
Clouds
Windchill 48 °F
Dew Point 41 °F
Humidity 73%
Rainfall 0.00 in
Snow Depth Not available.
UV Not available.
Pollen Not available.
Air Quality Not available.
Flu Activity Not available.
METAR YMHB 231230Z 31010KT CAVOK 13/07 Q1019

More Conditions Fewer Conditions

10-Day Weather Forecast

Almanac

Astronomy

Sep. 23, 2014 Rise Set
Actual Time 5:59 AM AEST 6:08 PM AEST
Civil Twilight 5:30 AM AEST 6:36 PM AEST
Nautical Twilight 4:57 AM AEST 7:09 PM AEST
Astronomical Twilight 4:24 AM AEST 7:43 PM AEST
Moon 5:12 AM AEST 5:12 PM AEST
Length of Visible Light 13h 05m
Length of Day
12h 08m
Tomorrow will be 2m 54s longer.
Waning Crescent, 0% of the Moon is Illuminated
Today
Waning Crescent
Sep 24
New
Oct 1
First Quarter
Oct 8
Full
Oct 15
Last Quarter

Yesterday's Extremes

Country Highs Country Lows

Community

WunderPhotos

Upload Photos

1,755,667 photos uploaded!

WunderBlogs® & News

Nearby

Snow Depth

Not available.

Earthquake Activity

City Distance Mag. Time & Date
No recent earthquake activity has been reported nearby.
Minimum magnitude displayed is 2.5.

Coastal Water Temperatures

Place Temperature
No Stations Reporting

Nearby Weather Stations